Tropical Cyclones
[Index]
Main Index Home Page Stock Weather Photos Extreme Storms Discussion Storm News and Storm Chasing Reports Tropical Cyclones / Hurricanes / Typhoons Weather Data and Links Wild Fires / Bushfires Weather Observation Techniques Weather Picture Catalogue Tornado Pictures and Reports Stock Video Footage and DVDs for sale
Season 1976-1977 Tropical Cyclone OTTO Track Map
Season 1976-1977 Summaries: [BoM-AU] [JTWC-AU] [JTWC-SIO] [JTWC-SPAC] [JTWC-SH]
<<- Previous TC | BoM 1976-1977 Season | Next TC ->>

click for intensity scale information  Lat/long Grid: Show Hide

 Date Labels: Show Hide

Bureau of Meteorology Tropical Cyclone Data

Name: OTTO
Number: 572 / 197677_11

06 Mar 1977 17:00 UTC to 10 Mar 1977 02:00 UTC

    date/time    lat    long    hPa   cat  kts
1977-03-06 17   14.0   140.1    989    1                
1977-03-06 23   13.2   140.3    990    1                
1977-03-07 02   12.9   140.6    988    1                
1977-03-07 05   12.7   141.0    984    2                
1977-03-07 08   12.8   141.5    986    1                
1977-03-07 11   13.2   142.0    988    1                
1977-03-07 17   14.1   143.0    988    1                
1977-03-07 23   15.0   143.7    988    1                
1977-03-08 05   15.8   144.2    988    1                
1977-03-08 08   16.0   144.6    988    1                
1977-03-08 11   16.1   144.9    988    1                
1977-03-08 17   16.3   145.8    987    1                
1977-03-08 20   16.6   146.2    988    1                
1977-03-08 23   18.5   147.8    987    1                
1977-03-09 02   18.9   147.6    987    1                
1977-03-09 05   19.3   147.7    987    1                
1977-03-09 08   19.7   148.0    988    1                
1977-03-09 11   20.2   148.1    989    1                
1977-03-09 17   21.2   148.0    990    1                
1977-03-09 23   21.8   147.2    994    1                
1977-03-10 02   22.2   146.3    995    1                
Winds are 10-min average.

Tropical cyclone tracks developed by Michael Bath using data from the Bureau of Meteorology and Google Maps.


[Australian Severe Weather index] [Copyright Notice] [Email Contacts] [Search This Site] [Privacy Policy]
Document: tropical_cyclone_otto.htm Updated: 30 May 2013